createdAt,value
2022-08-08T00:00:50.101Z,90.00
2022-08-08T00:02:31.047Z,90.86
2022-08-08T00:04:53.168Z,91.58
2022-08-08T00:07:21.974Z,92.33
2022-08-08T00:09:48.204Z,92.68
2022-08-08T00:12:23.838Z,93.26
2022-08-08T00:15:00.687Z,94.11
2022-08-08T00:17:27.405Z,94.95
2022-08-08T00:20:14.663Z,96.02
2022-08-08T00:22:41.229Z,96.79
2022-08-08T00:25:08.413Z,97.62
2022-08-08T00:27:35.817Z,98.18
2022-08-08T00:30:03.188Z,97.92
2022-08-08T00:32:36.122Z,98.66
2022-08-08T00:35:03.970Z,98.12
2022-08-08T00:37:47.918Z,99.36
2022-08-08T00:41:06.805Z,99.30
2022-08-08T00:43:05.998Z,100.00
2022-08-08T00:45:44.789Z,100.00
2022-08-08T00:48:30.092Z,100.00
2022-08-08T00:50:56.970Z,100.00
2022-08-08T00:53:24.918Z,100.00
2022-08-08T00:55:55.715Z,100.00
2022-08-08T00:58:31.913Z,100.00
2022-08-08T01:00:58.883Z,100.00
2022-08-08T01:04:02.512Z,100.00
2022-08-08T01:06:11.881Z,100.00
2022-08-08T01:08:38.175Z,100.00
2022-08-08T01:11:13.132Z,100.00
2022-08-08T01:13:43.661Z,100.00
2022-08-08T01:16:10.779Z,100.00
2022-08-08T01:18:52.722Z,100.00
2022-08-08T01:21:35.073Z,100.00
2022-08-08T01:24:13.509Z,100.00
2022-08-08T01:26:48.116Z,100.00
2022-08-08T01:29:15.687Z,100.00
2022-08-08T01:32:13.053Z,100.00
2022-08-08T01:34:28.891Z,100.00
2022-08-08T01:36:55.379Z,100.00
2022-08-08T01:39:23.942Z,100.00
2022-08-08T01:41:54.058Z,100.00
2022-08-08T01:44:26.488Z,100.00
2022-08-08T01:46:52.953Z,100.00
2022-08-08T01:49:22.926Z,100.00
2022-08-08T01:52:29.272Z,100.00
2022-08-08T01:55:26.167Z,100.00
2022-08-08T01:57:22.323Z,100.00
2022-08-08T02:00:02.757Z,100.00
2022-08-08T02:02:34.906Z,100.00
2022-08-08T02:05:07.971Z,100.00
2022-08-08T02:07:37.011Z,100.00
2022-08-08T02:10:12.096Z,100.00
2022-08-08T02:12:38.603Z,100.00
2022-08-08T02:15:05.217Z,100.00
2022-08-08T02:17:43.065Z,100.00
2022-08-08T02:20:16.158Z,100.00
2022-08-08T02:22:55.998Z,100.00
2022-08-08T02:25:22.818Z,100.00
2022-08-08T02:28:00.980Z,100.00
2022-08-08T02:30:27.452Z,100.00
2022-08-08T02:32:53.732Z,100.00
2022-08-08T02:35:19.971Z,100.00
2022-08-08T02:37:53.443Z,100.00
2022-08-08T02:40:23.234Z,100.00
2022-08-08T02:44:35.201Z,100.00
2022-08-08T02:45:51.365Z,100.00
2022-08-08T02:48:26.268Z,100.00
2022-08-08T02:50:56.048Z,100.00
2022-08-08T02:53:24.095Z,100.00
2022-08-08T02:55:59.973Z,100.00
2022-08-08T02:58:26.429Z,100.00
2022-08-08T03:00:53.145Z,100.00
2022-08-08T03:05:00.611Z,100.00
2022-08-08T03:06:07.227Z,100.00
2022-08-08T03:08:33.675Z,100.00
2022-08-08T03:10:59.903Z,100.00
2022-08-08T03:15:53.712Z,100.00
2022-08-08T03:16:12.413Z,100.00
2022-08-08T03:18:46.027Z,100.00
2022-08-08T03:21:14.812Z,100.00
2022-08-08T03:23:59.120Z,100.00
2022-08-08T03:26:26.532Z,100.00
2022-08-08T03:28:53.451Z,100.00
2022-08-08T03:31:25.215Z,100.00
2022-08-08T03:34:00.566Z,100.00
2022-08-08T03:36:28.113Z,100.00
2022-08-08T03:39:14.557Z,100.00
2022-08-08T03:42:28.188Z,100.00
2022-08-08T03:44:28.324Z,100.00
2022-08-08T03:46:54.850Z,100.00
2022-08-08T03:49:58.606Z,100.00
2022-08-08T03:52:07.349Z,100.00
2022-08-08T03:54:51.768Z,100.00
2022-08-08T03:58:31.948Z,100.00
2022-08-08T04:00:12.209Z,100.00
2022-08-08T04:02:47.544Z,100.00
2022-08-08T04:05:19.549Z,100.00
2022-08-08T04:07:53.734Z,100.00
2022-08-08T04:10:19.989Z,100.00
2022-08-08T04:12:48.381Z,100.00
2022-08-08T04:15:16.158Z,100.00
2022-08-08T04:17:57.882Z,100.00
2022-08-08T04:20:28.165Z,100.00
2022-08-08T04:22:56.836Z,100.00
2022-08-08T04:25:23.446Z,100.00
2022-08-08T04:28:10.534Z,100.00
2022-08-08T04:30:44.694Z,100.00
2022-08-08T04:33:11.223Z,100.00
2022-08-08T04:35:39.612Z,100.00
2022-08-08T04:38:06.195Z,100.00
2022-08-08T04:40:35.885Z,100.00
2022-08-08T04:43:02.540Z,100.00
2022-08-08T04:45:31.718Z,100.00
2022-08-08T04:48:00.377Z,100.00
2022-08-08T04:50:34.337Z,100.00
2022-08-08T04:53:52.418Z,100.00
2022-08-08T04:55:55.406Z,100.00
2022-08-08T04:58:22.951Z,100.00
2022-08-08T05:00:49.952Z,100.00
2022-08-08T05:03:19.179Z,100.00
2022-08-08T05:06:13.032Z,100.00
2022-08-08T05:08:44.529Z,100.00
2022-08-08T05:11:10.779Z,100.00
2022-08-08T05:13:36.986Z,100.00
2022-08-08T05:16:55.154Z,100.00
2022-08-08T05:20:04.010Z,100.00
2022-08-08T05:21:58.254Z,100.00
2022-08-08T05:24:26.813Z,100.00
2022-08-08T05:26:53.061Z,100.00
2022-08-08T05:29:19.281Z,100.00
2022-08-08T05:32:03.506Z,100.00
2022-08-08T05:34:31.963Z,100.00
2022-08-08T05:36:58.204Z,100.00
2022-08-08T05:39:25.543Z,100.00
2022-08-08T05:41:55.901Z,100.00
2022-08-08T05:44:22.199Z,100.00
2022-08-08T05:47:02.951Z,100.00
2022-08-08T05:49:29.669Z,100.00
2022-08-08T05:51:57.421Z,100.00
2022-08-08T05:54:43.350Z,100.00
2022-08-08T05:57:11.020Z,100.00
2022-08-08T06:00:01.185Z,100.00
2022-08-08T06:02:24.548Z,100.00
2022-08-08T06:04:54.664Z,100.00
2022-08-08T06:07:21.244Z,100.00
2022-08-08T06:10:01.203Z,100.00
2022-08-08T06:12:30.017Z,100.00
2022-08-08T06:14:57.865Z,100.00
2022-08-08T06:17:50.314Z,100.00
2022-08-08T06:20:11.680Z,100.00
2022-08-08T06:22:38.578Z,100.00
2022-08-08T06:25:08.588Z,100.00
2022-08-08T06:27:36.502Z,100.00
2022-08-08T06:30:05.078Z,100.00
2022-08-08T06:32:33.621Z,100.00
2022-08-08T06:35:30.587Z,100.00
2022-08-08T06:37:46.082Z,100.00
2022-08-08T06:40:17.329Z,100.00
2022-08-08T06:42:43.576Z,100.00
2022-08-08T06:45:09.811Z,100.00
2022-08-08T06:47:51.824Z,100.00
2022-08-08T06:50:31.817Z,100.00
2022-08-08T06:52:58.893Z,100.00
2022-08-08T06:55:25.253Z,100.00
2022-08-08T06:57:57.449Z,100.00
2022-08-08T07:00:30.033Z,100.00
2022-08-08T07:02:56.947Z,100.00
2022-08-08T07:05:24.942Z,100.00
2022-08-08T07:07:55.994Z,100.00
2022-08-08T07:10:22.210Z,98.72
2022-08-08T07:12:49.679Z,97.22
2022-08-08T07:15:31.755Z,94.82
2022-08-08T07:18:01.640Z,94.92
2022-08-08T07:20:28.572Z,94.16
2022-08-08T07:22:54.814Z,90.80
2022-08-08T07:25:21.056Z,86.06
2022-08-08T07:28:02.492Z,82.64
2022-08-08T07:30:33.581Z,80.50
2022-08-08T07:33:01.289Z,82.27
2022-08-08T07:35:27.630Z,79.23
2022-08-08T07:38:04.664Z,78.75
2022-08-08T07:40:36.368Z,78.86
2022-08-08T07:43:04.076Z,78.15
2022-08-08T07:46:05.487Z,75.84
2022-08-08T07:48:21.458Z,76.80
2022-08-08T07:50:49.844Z,75.34
2022-08-08T07:53:51.957Z,76.12
2022-08-08T07:56:02.333Z,76.35
2022-08-08T07:58:28.587Z,77.55
2022-08-08T08:00:55.454Z,77.16
2022-08-08T08:03:28.436Z,75.29
2022-08-08T08:05:54.896Z,76.46
2022-08-08T08:08:22.754Z,76.89
2022-08-08T08:10:49.044Z,74.41
2022-08-08T08:13:17.827Z,74.83
2022-08-08T08:15:44.409Z,74.96
2022-08-08T08:18:14.539Z,73.17
2022-08-08T08:20:40.844Z,71.84
2022-08-08T08:23:08.353Z,71.47
2022-08-08T08:25:43.743Z,72.76
2022-08-08T08:28:23.577Z,67.45
2022-08-08T08:30:52.458Z,67.45
2022-08-08T08:33:20.067Z,64.87
2022-08-08T08:36:18.555Z,67.46
2022-08-08T08:38:32.811Z,63.97
2022-08-08T08:41:00.254Z,62.94
2022-08-08T08:43:28.998Z,60.72
2022-08-08T08:45:57.529Z,57.93
2022-08-08T08:48:23.912Z,59.41
2022-08-08T08:50:52.077Z,60.56
2022-08-08T08:53:54.482Z,59.12
2022-08-08T08:56:05.010Z,56.89
2022-08-08T08:58:31.248Z,57.22
2022-08-08T09:01:09.016Z,56.95
2022-08-08T09:03:46.492Z,57.01
2022-08-08T09:06:26.479Z,56.15
2022-08-08T09:08:53.595Z,54.75
2022-08-08T09:11:20.540Z,55.97
2022-08-08T09:13:47.730Z,55.62
2022-08-08T09:16:14.017Z,54.84
2022-08-08T09:18:41.323Z,55.58
2022-08-08T09:22:01.478Z,53.32
2022-08-08T09:23:54.362Z,53.32
2022-08-08T09:26:22.128Z,51.07
2022-08-08T09:28:48.407Z,49.74
2022-08-08T09:31:14.750Z,49.04
2022-08-08T09:34:15.989Z,48.99
2022-08-08T09:36:27.352Z,50.58
2022-08-08T09:38:54.510Z,48.90
2022-08-08T09:41:22.544Z,49.63
2022-08-08T09:44:06.550Z,47.30
2022-08-08T09:46:35.967Z,46.72
2022-08-08T09:49:41.295Z,49.28
2022-08-08T09:52:07.617Z,46.32
2022-08-08T09:54:36.872Z,47.30
2022-08-08T09:57:04.256Z,46.66
2022-08-08T10:00:02.412Z,45.69
2022-08-08T10:02:16.986Z,44.75
2022-08-08T10:04:47.323Z,45.80
2022-08-08T10:07:15.750Z,45.40
2022-08-08T10:10:00.631Z,43.74
2022-08-08T10:12:37.586Z,43.45
2022-08-08T10:15:17.862Z,43.25
2022-08-08T10:18:05.361Z,44.24
2022-08-08T10:20:40.296Z,43.78
2022-08-08T10:23:13.260Z,44.97
2022-08-08T10:25:57.329Z,42.73
2022-08-08T10:28:25.512Z,42.86
2022-08-08T10:31:01.294Z,41.92
2022-08-08T10:33:38.307Z,41.55
2022-08-08T10:36:22.078Z,40.42
2022-08-08T10:38:49.149Z,40.98
2022-08-08T10:41:15.502Z,41.64
2022-08-08T10:43:43.260Z,41.27
2022-08-08T10:46:29.409Z,41.15
2022-08-08T10:48:59.171Z,41.09
2022-08-08T10:51:26.284Z,40.26
2022-08-08T10:53:58.086Z,42.05
2022-08-08T10:56:27.156Z,40.85
2022-08-08T10:58:58.127Z,40.91
2022-08-08T11:01:24.451Z,40.87
2022-08-08T11:04:01.995Z,40.47
2022-08-08T11:06:29.057Z,41.09
2022-08-08T11:08:56.225Z,41.05
2022-08-08T11:11:31.958Z,40.46
2022-08-08T11:14:12.287Z,41.26
2022-08-08T11:16:42.404Z,40.52
2022-08-08T11:19:15.659Z,40.35
2022-08-08T11:21:43.547Z,40.40
2022-08-08T11:24:20.627Z,41.20
2022-08-08T11:26:56.703Z,41.40
2022-08-08T11:29:23.551Z,41.09
2022-08-08T11:32:07.901Z,40.96
2022-08-08T11:34:52.619Z,41.59
2022-08-08T11:38:34.509Z,40.70
2022-08-08T11:40:07.668Z,41.54
2022-08-08T11:42:35.505Z,40.95
2022-08-08T11:45:01.968Z,41.16
2022-08-08T11:47:39.569Z,41.95
2022-08-08T11:50:06.390Z,41.02
2022-08-08T11:52:39.171Z,41.17
2022-08-08T11:55:08.169Z,41.21
2022-08-08T11:57:35.133Z,41.31
2022-08-08T12:00:05.569Z,41.56
2022-08-08T12:02:34.002Z,42.01
2022-08-08T12:05:00.553Z,41.71
2022-08-08T12:07:26.846Z,41.81
2022-08-08T12:09:59.735Z,43.09
2022-08-08T12:12:28.988Z,45.69
2022-08-08T12:14:56.744Z,43.33
2022-08-08T12:17:23.005Z,45.14
2022-08-08T12:19:54.192Z,42.61
2022-08-08T12:22:21.358Z,41.02
2022-08-08T12:24:51.462Z,39.94
2022-08-08T12:27:22.423Z,40.03
2022-08-08T12:29:53.344Z,39.22
2022-08-08T12:32:22.361Z,39.94
2022-08-08T12:34:48.906Z,40.70
2022-08-08T12:37:15.178Z,41.39
2022-08-08T12:40:02.012Z,41.77
2022-08-08T12:42:33.890Z,43.51
2022-08-08T12:45:01.281Z,41.10
2022-08-08T12:47:57.903Z,39.56
2022-08-08T12:50:15.062Z,41.22
2022-08-08T12:52:41.520Z,38.87
2022-08-08T12:55:13.165Z,37.80
2022-08-08T12:57:56.208Z,38.01
2022-08-08T13:00:23.127Z,38.71
2022-08-08T13:03:01.040Z,38.45
2022-08-08T13:06:02.935Z,37.95
2022-08-08T13:08:15.813Z,39.21
2022-08-08T13:10:46.156Z,38.32
2022-08-08T13:13:23.590Z,38.91
2022-08-08T13:15:54.854Z,39.53
2022-08-08T13:18:27.383Z,37.28
2022-08-08T13:20:54.058Z,37.05
2022-08-08T13:23:30.477Z,36.55
2022-08-08T13:26:12.633Z,37.40
2022-08-08T13:28:42.057Z,35.26
2022-08-08T13:31:08.854Z,34.16
2022-08-08T13:33:42.119Z,33.48
2022-08-08T13:36:09.685Z,35.96
2022-08-08T13:38:35.927Z,33.95
2022-08-08T13:41:03.243Z,34.29
2022-08-08T13:43:29.462Z,35.00
2022-08-08T13:45:56.578Z,35.71
2022-08-08T13:48:25.272Z,36.46
2022-08-08T13:50:57.690Z,36.16
2022-08-08T13:53:38.621Z,36.58
2022-08-08T13:56:06.034Z,37.53
2022-08-08T13:58:33.103Z,36.96
2022-08-08T14:00:59.592Z,36.94
2022-08-08T14:03:53.473Z,36.81
2022-08-08T14:06:32.205Z,37.44
2022-08-08T14:08:58.316Z,35.05
2022-08-08T14:11:24.556Z,35.45
2022-08-08T14:13:59.642Z,33.78
2022-08-08T14:16:29.360Z,34.02
2022-08-08T14:18:55.625Z,34.61
2022-08-08T14:21:22.481Z,34.00
2022-08-08T14:24:04.164Z,34.70
2022-08-08T14:26:33.602Z,32.08
2022-08-08T14:28:59.888Z,32.58
2022-08-08T14:32:07.096Z,33.07
2022-08-08T14:34:22.987Z,32.39
2022-08-08T14:36:51.785Z,33.36
2022-08-08T14:39:20.957Z,31.67
2022-08-08T14:41:54.329Z,32.67
2022-08-08T14:44:24.895Z,33.15
2022-08-08T14:46:56.631Z,33.79
2022-08-08T14:49:32.120Z,32.66
2022-08-08T14:52:03.908Z,33.19
2022-08-08T14:54:31.385Z,32.63
2022-08-08T14:56:58.017Z,31.81
2022-08-08T14:59:50.068Z,31.71
2022-08-08T15:02:10.816Z,33.16
2022-08-08T15:04:41.801Z,32.06
2022-08-08T15:07:08.035Z,33.15
2022-08-08T15:09:49.467Z,32.61
2022-08-08T15:12:17.702Z,33.04
2022-08-08T15:14:53.749Z,32.53
2022-08-08T15:17:19.976Z,31.61
2022-08-08T15:19:46.263Z,31.82
2022-08-08T15:22:12.533Z,31.89
2022-08-08T15:24:44.298Z,32.29
2022-08-08T15:28:04.914Z,32.47
2022-08-08T15:30:02.556Z,32.48
2022-08-08T15:32:31.421Z,32.50
2022-08-08T15:34:57.959Z,31.56
2022-08-08T15:37:26.315Z,31.48
2022-08-08T15:39:52.609Z,32.05
2022-08-08T15:42:31.712Z,33.29
2022-08-08T15:44:59.259Z,32.95
2022-08-08T15:47:25.489Z,33.12
2022-08-08T15:49:51.735Z,33.15
2022-08-08T15:52:20.473Z,32.35
2022-08-08T15:54:48.011Z,32.76
2022-08-08T15:57:18.135Z,31.94
2022-08-08T16:00:05.469Z,32.92
2022-08-08T16:02:32.052Z,32.67
2022-08-08T16:04:59.281Z,32.23
2022-08-08T16:07:25.562Z,32.04
2022-08-08T16:13:04.686Z,32.04
2022-08-08T16:13:26.003Z,31.97
2022-08-08T16:15:59.150Z,32.76
2022-08-08T16:18:29.394Z,32.55
2022-08-08T16:20:59.931Z,32.92
2022-08-08T16:23:27.025Z,33.08
2022-08-08T16:25:54.663Z,33.44
2022-08-08T16:28:35.255Z,32.77
2022-08-08T16:31:03.195Z,33.52
2022-08-08T16:33:38.875Z,33.16
2022-08-08T16:36:08.978Z,33.35
2022-08-08T16:38:35.663Z,34.71
2022-08-08T16:41:06.900Z,35.17
2022-08-08T16:43:42.242Z,35.42
2022-08-08T16:46:43.066Z,35.68
2022-08-08T16:49:01.780Z,35.70
2022-08-08T16:55:02.071Z,35.62
2022-08-08T16:55:07.106Z,36.51
2022-08-08T16:57:22.826Z,36.32
2022-08-08T16:59:51.961Z,35.96
2022-08-08T17:02:38.551Z,35.75
2022-08-08T17:05:12.936Z,36.16
2022-08-08T17:07:40.391Z,35.33
2022-08-08T17:10:06.979Z,35.56
2022-08-08T17:12:33.701Z,35.28
2022-08-08T17:15:17.182Z,35.76
2022-08-08T17:18:02.268Z,35.89
2022-08-08T17:20:28.941Z,35.57
2022-08-08T17:23:16.596Z,35.67
2022-08-08T17:25:51.973Z,35.41
2022-08-08T17:28:18.937Z,36.11
2022-08-08T17:31:01.094Z,36.21
2022-08-08T17:34:36.933Z,35.62
2022-08-08T17:36:29.374Z,35.49
2022-08-08T17:38:57.763Z,35.44
2022-08-08T17:41:38.931Z,35.44
2022-08-08T17:44:09.458Z,35.63
2022-08-08T17:46:36.454Z,35.99
2022-08-08T17:49:02.711Z,36.26
2022-08-08T17:51:28.929Z,36.96
2022-08-08T17:53:57.704Z,36.84
2022-08-08T17:56:26.302Z,37.08
2022-08-08T17:58:53.183Z,37.49
2022-08-08T18:01:29.842Z,37.31
2022-08-08T18:04:06.581Z,37.92
2022-08-08T18:06:35.369Z,38.58
2022-08-08T18:09:09.451Z,38.84
2022-08-08T18:11:36.590Z,38.85
2022-08-08T18:14:02.907Z,38.93
2022-08-08T18:16:45.018Z,39.58
2022-08-08T18:19:20.627Z,39.94
2022-08-08T18:22:01.797Z,40.44
2022-08-08T18:24:28.543Z,40.57
2022-08-08T18:26:56.957Z,40.86
2022-08-08T18:29:26.123Z,41.17
2022-08-08T18:31:56.638Z,41.57
2022-08-08T18:34:26.993Z,41.81
2022-08-08T18:36:53.506Z,42.31
2022-08-08T18:39:27.566Z,42.34
2022-08-08T18:41:58.127Z,43.47
2022-08-08T18:44:29.178Z,44.14
2022-08-08T18:46:59.421Z,45.59
2022-08-08T18:49:25.637Z,46.48
2022-08-08T18:51:59.019Z,50.22
2022-08-08T18:54:30.861Z,49.09
2022-08-08T18:56:57.276Z,54.23
2022-08-08T18:59:23.575Z,51.52
2022-08-08T19:02:14.195Z,52.70
2022-08-08T19:04:36.031Z,52.03
2022-08-08T19:07:02.931Z,52.63
2022-08-08T19:09:49.503Z,54.13
2022-08-08T19:12:15.478Z,55.40
2022-08-08T19:14:42.851Z,55.10
2022-08-08T19:17:10.541Z,55.97
2022-08-08T19:19:36.841Z,59.13
2022-08-08T19:22:10.280Z,58.13
2022-08-08T19:24:50.646Z,58.19
2022-08-08T19:27:57.071Z,61.28
2022-08-08T19:30:18.001Z,62.72
2022-08-08T19:32:50.921Z,63.62
2022-08-08T19:35:17.160Z,69.34
2022-08-08T19:37:52.973Z,64.00
2022-08-08T19:40:30.674Z,68.62
2022-08-08T19:42:57.509Z,64.52
2022-08-08T19:45:58.566Z,69.16
2022-08-08T19:48:28.764Z,66.39
2022-08-08T19:50:57.607Z,67.87
2022-08-08T19:53:51.643Z,66.95
2022-08-08T19:56:12.866Z,67.74
2022-08-08T19:58:39.512Z,70.12
2022-08-08T20:01:08.508Z,69.98
2022-08-08T20:04:00.879Z,72.86
2022-08-08T20:06:29.389Z,78.09
2022-08-08T20:08:55.694Z,71.31
2022-08-08T20:11:22.287Z,74.14
2022-08-08T20:14:31.616Z,72.84
2022-08-08T20:16:39.302Z,73.02
2022-08-08T20:19:07.388Z,73.45
2022-08-08T20:21:37.334Z,73.77
2022-08-08T20:24:04.530Z,74.53
2022-08-08T20:26:33.369Z,75.50
2022-08-08T20:29:00.071Z,75.36
2022-08-08T20:31:28.157Z,75.60
2022-08-08T20:34:29.074Z,75.56
2022-08-08T20:36:57.984Z,81.24
2022-08-08T20:39:24.352Z,77.55
2022-08-08T20:41:59.885Z,78.41
2022-08-08T20:44:26.229Z,79.20
2022-08-08T20:46:52.559Z,78.88
2022-08-08T20:49:19.627Z,79.75
2022-08-08T20:51:48.406Z,84.30
2022-08-08T20:54:27.357Z,79.21
2022-08-08T20:57:04.783Z,80.60
2022-08-08T20:59:41.003Z,79.23
2022-08-08T21:02:09.065Z,79.11
2022-08-08T21:04:39.184Z,79.03
2022-08-08T21:07:13.269Z,80.13
2022-08-08T21:10:02.196Z,81.29
2022-08-08T21:12:32.387Z,80.40
2022-08-08T21:14:59.922Z,80.16
2022-08-08T21:17:33.335Z,81.04
2022-08-08T21:19:59.860Z,81.67
2022-08-08T21:22:29.044Z,81.84
2022-08-08T21:24:55.283Z,81.53
2022-08-08T21:28:05.858Z,82.74
2022-08-08T21:30:16.283Z,82.25
2022-08-08T21:32:45.813Z,83.12
2022-08-08T21:36:15.086Z,83.71
2022-08-08T21:38:05.698Z,83.09
2022-08-08T21:40:34.901Z,83.32
2022-08-08T21:43:01.943Z,83.25
2022-08-08T21:47:59.398Z,83.93
2022-08-08T21:48:19.954Z,84.04
2022-08-08T21:50:50.488Z,84.89
2022-08-08T21:54:35.368Z,85.08
2022-08-08T21:56:19.112Z,86.00
2022-08-08T21:58:54.848Z,85.52
2022-08-08T22:01:38.795Z,88.17
2022-08-08T22:04:07.014Z,86.46
2022-08-08T22:06:37.870Z,87.17
2022-08-08T22:09:08.326Z,87.08
2022-08-08T22:11:59.249Z,87.82
2022-08-08T22:14:21.368Z,87.62
2022-08-08T22:16:47.667Z,87.54
2022-08-08T22:19:17.387Z,88.92
2022-08-08T22:21:43.671Z,88.97
2022-08-08T22:24:13.333Z,89.62
2022-08-08T22:27:01.722Z,90.14
2022-08-08T22:30:01.920Z,90.75
2022-08-08T22:32:11.984Z,91.23
2022-08-08T22:34:39.235Z,91.96
2022-08-08T22:37:06.370Z,92.74
2022-08-08T22:39:51.537Z,93.38
2022-08-08T22:42:31.336Z,92.87
2022-08-08T22:44:58.531Z,92.99
2022-08-08T22:47:34.362Z,93.53
2022-08-08T22:50:04.708Z,93.32
2022-08-08T22:52:33.520Z,94.90
2022-08-08T22:55:04.638Z,94.93
2022-08-08T22:57:44.240Z,93.97
2022-08-08T23:00:16.436Z,95.45
2022-08-08T23:02:44.728Z,94.62
2022-08-08T23:05:16.692Z,95.14
2022-08-08T23:07:56.928Z,94.93
2022-08-08T23:10:25.560Z,95.45
2022-08-08T23:12:53.220Z,96.10
2022-08-08T23:16:38.675Z,96.10
2022-08-08T23:18:06.012Z,97.54
2022-08-08T23:20:32.270Z,97.11
2022-08-08T23:22:58.758Z,96.75
2022-08-08T23:25:25.935Z,98.23
2022-08-08T23:27:54.390Z,97.99
2022-08-08T23:30:21.025Z,98.10
2022-08-08T23:32:48.002Z,98.16
2022-08-08T23:35:17.301Z,98.69
2022-08-08T23:38:00.766Z,99.26
2022-08-08T23:40:28.696Z,100.00
2022-08-08T23:42:56.430Z,100.00
2022-08-08T23:49:02.101Z,100.00
2022-08-08T23:49:04.025Z,100.00
2022-08-08T23:50:57.407Z,100.00
2022-08-08T23:53:55.900Z,100.00
2022-08-08T23:56:10.062Z,100.00
2022-08-08T23:58:38.452Z,100.00
